sensor_id;sensor_type;location;lat;lon;timestamp;temperature;humidity
45785;DHT22;31489;51.404;5.474;2023-03-17T00:01:16;13.70;50.80
45785;DHT22;31489;51.404;5.474;2023-03-17T00:03:44;13.70;50.80
45785;DHT22;31489;51.404;5.474;2023-03-17T00:06:15;13.70;50.80
45785;DHT22;31489;51.404;5.474;2023-03-17T00:08:42;13.60;50.70
45785;DHT22;31489;51.404;5.474;2023-03-17T00:11:14;13.60;50.80
45785;DHT22;31489;51.404;5.474;2023-03-17T00:13:41;13.60;50.80
45785;DHT22;31489;51.404;5.474;2023-03-17T00:16:18;13.60;51.00
45785;DHT22;31489;51.404;5.474;2023-03-17T00:18:45;13.60;51.00
45785;DHT22;31489;51.404;5.474;2023-03-17T00:21:16;13.60;51.10
45785;DHT22;31489;51.404;5.474;2023-03-17T00:23:48;13.60;51.00
45785;DHT22;31489;51.404;5.474;2023-03-17T00:26:15;13.60;51.00
45785;DHT22;31489;51.404;5.474;2023-03-17T00:28:41;13.60;51.30
45785;DHT22;31489;51.404;5.474;2023-03-17T00:31:15;13.60;51.50
45785;DHT22;31489;51.404;5.474;2023-03-17T00:33:43;13.60;51.30
45785;DHT22;31489;51.404;5.474;2023-03-17T00:36:18;13.60;51.50
45785;DHT22;31489;51.404;5.474;2023-03-17T00:38:44;13.50;51.40
45785;DHT22;31489;51.404;5.474;2023-03-17T00:41:10;13.50;51.70
45785;DHT22;31489;51.404;5.474;2023-03-17T00:43:37;13.50;51.80
45785;DHT22;31489;51.404;5.474;2023-03-17T00:46:28;13.50;51.80
45785;DHT22;31489;51.404;5.474;2023-03-17T00:49:19;13.50;51.70
45785;DHT22;31489;51.404;5.474;2023-03-17T00:51:46;13.40;52.00
45785;DHT22;31489;51.404;5.474;2023-03-17T00:54:12;13.40;52.00
45785;DHT22;31489;51.404;5.474;2023-03-17T00:56:39;13.40;52.10
45785;DHT22;31489;51.404;5.474;2023-03-17T00:59:18;13.30;52.00
45785;DHT22;31489;51.404;5.474;2023-03-17T01:01:45;13.30;52.00
45785;DHT22;31489;51.404;5.474;2023-03-17T01:04:12;13.30;52.30
45785;DHT22;31489;51.404;5.474;2023-03-17T01:06:38;13.30;52.20
45785;DHT22;31489;51.404;5.474;2023-03-17T01:09:04;13.30;52.30
45785;DHT22;31489;51.404;5.474;2023-03-17T01:11:30;13.20;52.40
45785;DHT22;31489;51.404;5.474;2023-03-17T01:13:55;13.20;52.20
45785;DHT22;31489;51.404;5.474;2023-03-17T01:16:21;13.20;52.50
45785;DHT22;31489;51.404;5.474;2023-03-17T01:18:47;13.20;52.40
45785;DHT22;31489;51.404;5.474;2023-03-17T01:21:14;13.10;52.40
45785;DHT22;31489;51.404;5.474;2023-03-17T01:23:40;13.10;52.30
45785;DHT22;31489;51.404;5.474;2023-03-17T01:26:06;13.10;52.50
45785;DHT22;31489;51.404;5.474;2023-03-17T01:28:33;13.10;52.40
45785;DHT22;31489;51.404;5.474;2023-03-17T01:30:58;13.00;52.50
45785;DHT22;31489;51.404;5.474;2023-03-17T01:33:25;13.00;52.50
45785;DHT22;31489;51.404;5.474;2023-03-17T01:35:51;13.00;52.60
45785;DHT22;31489;51.404;5.474;2023-03-17T01:38:17;13.00;52.50
45785;DHT22;31489;51.404;5.474;2023-03-17T01:40:46;12.90;52.40
45785;DHT22;31489;51.404;5.474;2023-03-17T01:43:22;12.90;52.60
45785;DHT22;31489;51.404;5.474;2023-03-17T01:46:13;12.90;52.70
45785;DHT22;31489;51.404;5.474;2023-03-17T01:54:16;12.80;53.00
45785;DHT22;31489;51.404;5.474;2023-03-17T01:56:44;12.70;53.10
45785;DHT22;31489;51.404;5.474;2023-03-17T01:59:21;12.70;53.20
45785;DHT22;31489;51.404;5.474;2023-03-17T02:01:49;12.70;53.20
45785;DHT22;31489;51.404;5.474;2023-03-17T02:04:18;12.60;53.30
45785;DHT22;31489;51.404;5.474;2023-03-17T02:06:48;12.60;53.30
45785;DHT22;31489;51.404;5.474;2023-03-17T02:09:15;12.60;53.40
45785;DHT22;31489;51.404;5.474;2023-03-17T02:11:41;12.60;53.60
45785;DHT22;31489;51.404;5.474;2023-03-17T02:14:07;12.50;53.60
45785;DHT22;31489;51.404;5.474;2023-03-17T02:16:33;12.50;53.70
45785;DHT22;31489;51.404;5.474;2023-03-17T02:18:59;12.50;53.70
45785;DHT22;31489;51.404;5.474;2023-03-17T02:21:41;12.50;53.80
45785;DHT22;31489;51.404;5.474;2023-03-17T02:27:29;12.40;53.60
45785;DHT22;31489;51.404;5.474;2023-03-17T02:29:56;12.40;53.80
45785;DHT22;31489;51.404;5.474;2023-03-17T02:32:22;12.40;53.80
45785;DHT22;31489;51.404;5.474;2023-03-17T02:34:48;12.40;53.70
45785;DHT22;31489;51.404;5.474;2023-03-17T02:37:15;12.40;53.80
45785;DHT22;31489;51.404;5.474;2023-03-17T02:39:41;12.40;53.70
45785;DHT22;31489;51.404;5.474;2023-03-17T02:42:07;12.40;53.60
45785;DHT22;31489;51.404;5.474;2023-03-17T02:44:34;12.40;53.60
45785;DHT22;31489;51.404;5.474;2023-03-17T02:47:00;12.40;53.60
45785;DHT22;31489;51.404;5.474;2023-03-17T02:49:26;12.40;53.70
45785;DHT22;31489;51.404;5.474;2023-03-17T02:51:52;12.40;53.60
45785;DHT22;31489;51.404;5.474;2023-03-17T02:54:18;12.40;53.60
45785;DHT22;31489;51.404;5.474;2023-03-17T02:56:44;12.30;53.50
45785;DHT22;31489;51.404;5.474;2023-03-17T02:59:09;12.40;53.60
45785;DHT22;31489;51.404;5.474;2023-03-17T03:01:35;12.40;53.50
45785;DHT22;31489;51.404;5.474;2023-03-17T03:04:03;12.30;53.40
45785;DHT22;31489;51.404;5.474;2023-03-17T03:06:28;12.30;53.40
45785;DHT22;31489;51.404;5.474;2023-03-17T03:08:54;12.40;53.60
45785;DHT22;31489;51.404;5.474;2023-03-17T03:11:19;12.30;53.40
45785;DHT22;31489;51.404;5.474;2023-03-17T03:13:48;12.30;53.50
45785;DHT22;31489;51.404;5.474;2023-03-17T03:16:14;12.30;53.40
45785;DHT22;31489;51.404;5.474;2023-03-17T03:18:40;12.30;53.40
45785;DHT22;31489;51.404;5.474;2023-03-17T03:21:06;12.30;53.40
45785;DHT22;31489;51.404;5.474;2023-03-17T03:23:32;12.30;53.40
45785;DHT22;31489;51.404;5.474;2023-03-17T03:25:58;12.40;53.60
45785;DHT22;31489;51.404;5.474;2023-03-17T03:28:24;12.30;53.50
45785;DHT22;31489;51.404;5.474;2023-03-17T03:30:50;12.30;53.50
45785;DHT22;31489;51.404;5.474;2023-03-17T03:33:16;12.30;53.40
45785;DHT22;31489;51.404;5.474;2023-03-17T03:35:42;12.40;53.50
45785;DHT22;31489;51.404;5.474;2023-03-17T03:38:09;12.40;53.40
45785;DHT22;31489;51.404;5.474;2023-03-17T03:40:35;12.40;53.40
45785;DHT22;31489;51.404;5.474;2023-03-17T03:43:01;12.40;53.50
45785;DHT22;31489;51.404;5.474;2023-03-17T03:45:27;12.40;53.40
45785;DHT22;31489;51.404;5.474;2023-03-17T03:47:53;12.40;53.40
45785;DHT22;31489;51.404;5.474;2023-03-17T03:50:20;12.30;53.40
45785;DHT22;31489;51.404;5.474;2023-03-17T03:52:46;12.30;53.40
45785;DHT22;31489;51.404;5.474;2023-03-17T03:55:11;12.30;53.60
45785;DHT22;31489;51.404;5.474;2023-03-17T03:57:37;12.30;53.70
45785;DHT22;31489;51.404;5.474;2023-03-17T04:00:04;12.30;53.60
45785;DHT22;31489;51.404;5.474;2023-03-17T04:02:32;12.30;53.80
45785;DHT22;31489;51.404;5.474;2023-03-17T04:04:58;12.30;53.80
45785;DHT22;31489;51.404;5.474;2023-03-17T04:07:24;12.30;53.80
45785;DHT22;31489;51.404;5.474;2023-03-17T04:09:50;12.30;53.90
45785;DHT22;31489;51.404;5.474;2023-03-17T04:12:16;12.30;54.00
45785;DHT22;31489;51.404;5.474;2023-03-17T04:14:42;12.30;54.10
45785;DHT22;31489;51.404;5.474;2023-03-17T04:17:10;12.20;54.10
45785;DHT22;31489;51.404;5.474;2023-03-17T04:19:36;12.20;54.00
45785;DHT22;31489;51.404;5.474;2023-03-17T04:22:03;12.20;54.10
45785;DHT22;31489;51.404;5.474;2023-03-17T04:24:28;12.20;54.10
45785;DHT22;31489;51.404;5.474;2023-03-17T04:26:54;12.20;54.10
45785;DHT22;31489;51.404;5.474;2023-03-17T04:29:20;12.20;54.10
45785;DHT22;31489;51.404;5.474;2023-03-17T04:31:46;12.20;54.10
45785;DHT22;31489;51.404;5.474;2023-03-17T04:34:17;12.20;54.40
45785;DHT22;31489;51.404;5.474;2023-03-17T04:36:46;12.20;54.00
45785;DHT22;31489;51.404;5.474;2023-03-17T04:39:14;12.20;54.20
45785;DHT22;31489;51.404;5.474;2023-03-17T04:41:40;12.20;54.50
45785;DHT22;31489;51.404;5.474;2023-03-17T04:44:06;12.20;54.60
45785;DHT22;31489;51.404;5.474;2023-03-17T04:46:32;12.20;54.60
45785;DHT22;31489;51.404;5.474;2023-03-17T04:48:58;12.20;54.40
45785;DHT22;31489;51.404;5.474;2023-03-17T04:51:24;12.20;54.50
45785;DHT22;31489;51.404;5.474;2023-03-17T04:53:50;12.20;54.40
45785;DHT22;31489;51.404;5.474;2023-03-17T04:56:17;12.10;54.50
45785;DHT22;31489;51.404;5.474;2023-03-17T04:58:43;12.20;54.60
45785;DHT22;31489;51.404;5.474;2023-03-17T05:01:09;12.10;54.50
45785;DHT22;31489;51.404;5.474;2023-03-17T05:03:35;12.20;54.70
45785;DHT22;31489;51.404;5.474;2023-03-17T05:06:02;12.10;55.10
45785;DHT22;31489;51.404;5.474;2023-03-17T05:08:27;12.10;54.60
45785;DHT22;31489;51.404;5.474;2023-03-17T05:10:54;12.10;54.60
45785;DHT22;31489;51.404;5.474;2023-03-17T05:13:20;12.10;54.70
45785;DHT22;31489;51.404;5.474;2023-03-17T05:15:47;12.10;54.60
45785;DHT22;31489;51.404;5.474;2023-03-17T05:18:14;12.10;54.50
45785;DHT22;31489;51.404;5.474;2023-03-17T05:20:40;12.10;54.60
45785;DHT22;31489;51.404;5.474;2023-03-17T05:23:06;12.10;54.50
45785;DHT22;31489;51.404;5.474;2023-03-17T05:25:32;12.10;55.00
45785;DHT22;31489;51.404;5.474;2023-03-17T05:27:57;12.10;54.40
45785;DHT22;31489;51.404;5.474;2023-03-17T05:30:24;12.10;54.40
45785;DHT22;31489;51.404;5.474;2023-03-17T05:32:50;12.10;54.50
45785;DHT22;31489;51.404;5.474;2023-03-17T05:35:16;12.10;54.50
45785;DHT22;31489;51.404;5.474;2023-03-17T05:37:42;12.10;54.50
45785;DHT22;31489;51.404;5.474;2023-03-17T05:40:09;12.10;54.60
45785;DHT22;31489;51.404;5.474;2023-03-17T05:42:35;12.10;54.70
45785;DHT22;31489;51.404;5.474;2023-03-17T05:45:01;12.10;55.00
45785;DHT22;31489;51.404;5.474;2023-03-17T05:47:27;12.10;54.90
45785;DHT22;31489;51.404;5.474;2023-03-17T05:49:52;12.10;54.80
45785;DHT22;31489;51.404;5.474;2023-03-17T05:52:18;12.10;54.80
45785;DHT22;31489;51.404;5.474;2023-03-17T05:54:44;12.10;55.50
45785;DHT22;31489;51.404;5.474;2023-03-17T05:57:13;12.10;54.90
45785;DHT22;31489;51.404;5.474;2023-03-17T05:59:39;12.10;55.10
45785;DHT22;31489;51.404;5.474;2023-03-17T06:02:04;12.10;55.00
45785;DHT22;31489;51.404;5.474;2023-03-17T06:04:30;12.10;55.00
45785;DHT22;31489;51.404;5.474;2023-03-17T06:06:57;12.10;55.10
45785;DHT22;31489;51.404;5.474;2023-03-17T06:09:23;12.10;55.20
45785;DHT22;31489;51.404;5.474;2023-03-17T06:11:48;12.10;55.30
45785;DHT22;31489;51.404;5.474;2023-03-17T06:14:14;12.10;55.10
45785;DHT22;31489;51.404;5.474;2023-03-17T06:16:39;12.00;55.00
45785;DHT22;31489;51.404;5.474;2023-03-17T06:19:05;12.10;55.10
45785;DHT22;31489;51.404;5.474;2023-03-17T06:21:31;12.10;55.20
45785;DHT22;31489;51.404;5.474;2023-03-17T06:23:56;12.10;55.10
45785;DHT22;31489;51.404;5.474;2023-03-17T06:26:22;12.10;55.30
45785;DHT22;31489;51.404;5.474;2023-03-17T06:28:48;12.10;55.30
45785;DHT22;31489;51.404;5.474;2023-03-17T06:31:14;12.10;55.30
45785;DHT22;31489;51.404;5.474;2023-03-17T06:33:39;12.10;55.30
45785;DHT22;31489;51.404;5.474;2023-03-17T06:36:06;12.10;55.40
45785;DHT22;31489;51.404;5.474;2023-03-17T06:38:32;12.10;55.50
45785;DHT22;31489;51.404;5.474;2023-03-17T06:40:58;12.10;55.50
45785;DHT22;31489;51.404;5.474;2023-03-17T06:43:24;12.10;55.50
45785;DHT22;31489;51.404;5.474;2023-03-17T06:45:50;12.10;55.60
45785;DHT22;31489;51.404;5.474;2023-03-17T06:48:17;12.10;55.60
45785;DHT22;31489;51.404;5.474;2023-03-17T06:50:43;12.10;55.60
45785;DHT22;31489;51.404;5.474;2023-03-17T06:53:11;12.10;55.70
45785;DHT22;31489;51.404;5.474;2023-03-17T06:55:37;12.10;55.80
45785;DHT22;31489;51.404;5.474;2023-03-17T06:58:03;12.10;55.80
45785;DHT22;31489;51.404;5.474;2023-03-17T07:00:29;12.10;55.90
45785;DHT22;31489;51.404;5.474;2023-03-17T07:02:55;12.10;55.90
45785;DHT22;31489;51.404;5.474;2023-03-17T07:05:22;12.20;56.10
45785;DHT22;31489;51.404;5.474;2023-03-17T07:07:49;12.20;56.10
45785;DHT22;31489;51.404;5.474;2023-03-17T07:10:15;12.20;56.10
45785;DHT22;31489;51.404;5.474;2023-03-17T07:12:43;12.20;56.20
45785;DHT22;31489;51.404;5.474;2023-03-17T07:15:10;12.20;56.10
45785;DHT22;31489;51.404;5.474;2023-03-17T07:17:37;12.20;56.10
45785;DHT22;31489;51.404;5.474;2023-03-17T07:20:03;12.30;56.20
45785;DHT22;31489;51.404;5.474;2023-03-17T07:22:31;12.30;56.20
45785;DHT22;31489;51.404;5.474;2023-03-17T07:24:57;12.30;56.30
45785;DHT22;31489;51.404;5.474;2023-03-17T07:27:24;12.30;56.20
45785;DHT22;31489;51.404;5.474;2023-03-17T07:29:51;12.40;56.20
45785;DHT22;31489;51.404;5.474;2023-03-17T07:32:20;12.40;56.40
45785;DHT22;31489;51.404;5.474;2023-03-17T07:34:45;12.40;56.30
45785;DHT22;31489;51.404;5.474;2023-03-17T07:37:11;12.40;56.40
45785;DHT22;31489;51.404;5.474;2023-03-17T07:39:37;12.50;56.40
45785;DHT22;31489;51.404;5.474;2023-03-17T07:42:04;12.50;56.40
45785;DHT22;31489;51.404;5.474;2023-03-17T07:44:30;12.60;56.50
45785;DHT22;31489;51.404;5.474;2023-03-17T07:46:58;12.60;56.40
45785;DHT22;31489;51.404;5.474;2023-03-17T07:49:23;12.70;56.50
45785;DHT22;31489;51.404;5.474;2023-03-17T07:51:49;12.70;56.40
45785;DHT22;31489;51.404;5.474;2023-03-17T07:54:18;12.70;56.40
45785;DHT22;31489;51.404;5.474;2023-03-17T07:56:44;12.80;56.40
45785;DHT22;31489;51.404;5.474;2023-03-17T07:59:10;12.90;56.40
45785;DHT22;31489;51.404;5.474;2023-03-17T08:01:36;12.90;56.50
45785;DHT22;31489;51.404;5.474;2023-03-17T08:04:03;12.90;56.30
45785;DHT22;31489;51.404;5.474;2023-03-17T08:06:29;13.00;56.30
45785;DHT22;31489;51.404;5.474;2023-03-17T08:08:55;13.00;56.30
45785;DHT22;31489;51.404;5.474;2023-03-17T08:11:21;13.10;56.30
45785;DHT22;31489;51.404;5.474;2023-03-17T08:13:48;13.20;56.40
45785;DHT22;31489;51.404;5.474;2023-03-17T08:16:14;13.20;56.20
45785;DHT22;31489;51.404;5.474;2023-03-17T08:18:40;13.20;56.30
45785;DHT22;31489;51.404;5.474;2023-03-17T08:21:06;13.30;56.30
45785;DHT22;31489;51.404;5.474;2023-03-17T08:23:32;13.30;56.20
45785;DHT22;31489;51.404;5.474;2023-03-17T08:25:59;13.40;56.20
45785;DHT22;31489;51.404;5.474;2023-03-17T08:28:26;13.50;56.50
45785;DHT22;31489;51.404;5.474;2023-03-17T08:30:52;13.50;56.20
45785;DHT22;31489;51.404;5.474;2023-03-17T08:33:19;13.60;56.30
45785;DHT22;31489;51.404;5.474;2023-03-17T08:35:48;13.60;56.20
45785;DHT22;31489;51.404;5.474;2023-03-17T08:38:17;13.70;55.80
45785;DHT22;31489;51.404;5.474;2023-03-17T08:40:46;13.80;56.10
45785;DHT22;31489;51.404;5.474;2023-03-17T08:43:14;13.90;55.80
45785;DHT22;31489;51.404;5.474;2023-03-17T08:45:40;13.90;55.90
45785;DHT22;31489;51.404;5.474;2023-03-17T08:48:10;14.00;55.90
45785;DHT22;31489;51.404;5.474;2023-03-17T08:50:36;14.10;55.40
45785;DHT22;31489;51.404;5.474;2023-03-17T08:53:02;14.10;55.80
45785;DHT22;31489;51.404;5.474;2023-03-17T08:55:31;14.20;55.80
45785;DHT22;31489;51.404;5.474;2023-03-17T08:57:57;14.30;55.80
45785;DHT22;31489;51.404;5.474;2023-03-17T09:00:25;14.40;56.10
45785;DHT22;31489;51.404;5.474;2023-03-17T09:02:54;14.50;55.90
45785;DHT22;31489;51.404;5.474;2023-03-17T09:05:22;14.50;56.10
45785;DHT22;31489;51.404;5.474;2023-03-17T09:07:48;14.60;56.40
45785;DHT22;31489;51.404;5.474;2023-03-17T09:10:17;14.70;55.90
45785;DHT22;31489;51.404;5.474;2023-03-17T09:12:49;14.80;55.70
45785;DHT22;31489;51.404;5.474;2023-03-17T09:15:16;14.90;56.00
45785;DHT22;31489;51.404;5.474;2023-03-17T09:17:42;15.00;55.70
45785;DHT22;31489;51.404;5.474;2023-03-17T09:20:09;15.10;55.60
45785;DHT22;31489;51.404;5.474;2023-03-17T09:22:41;15.20;55.50
45785;DHT22;31489;51.404;5.474;2023-03-17T09:25:07;15.30;55.20
45785;DHT22;31489;51.404;5.474;2023-03-17T09:27:33;15.40;55.60
45785;DHT22;31489;51.404;5.474;2023-03-17T09:30:03;15.50;55.20
45785;DHT22;31489;51.404;5.474;2023-03-17T09:32:31;15.60;55.00
45785;DHT22;31489;51.404;5.474;2023-03-17T09:34:57;15.60;54.90
45785;DHT22;31489;51.404;5.474;2023-03-17T09:37:23;15.70;55.20
45785;DHT22;31489;51.404;5.474;2023-03-17T09:39:52;15.80;55.30
45785;DHT22;31489;51.404;5.474;2023-03-17T09:42:33;15.90;55.40
45785;DHT22;31489;51.404;5.474;2023-03-17T09:47:47;16.00;54.60
45785;DHT22;31489;51.404;5.474;2023-03-17T09:50:28;16.10;54.90
45785;DHT22;31489;51.404;5.474;2023-03-17T09:53:01;16.20;54.10
45785;DHT22;31489;51.404;5.474;2023-03-17T09:55:30;16.40;54.80
45785;DHT22;31489;51.404;5.474;2023-03-17T09:58:04;16.50;54.60
45785;DHT22;31489;51.404;5.474;2023-03-17T10:00:30;16.60;54.10
45785;DHT22;31489;51.404;5.474;2023-03-17T10:02:56;16.70;54.70
45785;DHT22;31489;51.404;5.474;2023-03-17T10:05:29;16.90;54.90
45785;DHT22;31489;51.404;5.474;2023-03-17T10:08:18;17.10;54.70
45785;DHT22;31489;51.404;5.474;2023-03-17T10:11:15;17.30;53.70
45785;DHT22;31489;51.404;5.474;2023-03-17T10:13:56;17.50;53.60
45785;DHT22;31489;51.404;5.474;2023-03-17T10:16:35;17.60;54.50
45785;DHT22;31489;51.404;5.474;2023-03-17T10:21:59;18.00;53.10
45785;DHT22;31489;51.404;5.474;2023-03-17T10:24:29;18.10;52.00
45785;DHT22;31489;51.404;5.474;2023-03-17T10:26:58;18.30;53.30
45785;DHT22;31489;51.404;5.474;2023-03-17T10:29:24;18.40;52.90
45785;DHT22;31489;51.404;5.474;2023-03-17T10:31:54;18.60;52.80
45785;DHT22;31489;51.404;5.474;2023-03-17T10:34:28;18.70;52.10
45785;DHT22;31489;51.404;5.474;2023-03-17T10:37:17;18.90;52.20
45785;DHT22;31489;51.404;5.474;2023-03-17T10:39:48;19.10;51.60
45785;DHT22;31489;51.404;5.474;2023-03-17T10:42:24;19.30;51.20
45785;DHT22;31489;51.404;5.474;2023-03-17T10:44:54;19.50;50.60
45785;DHT22;31489;51.404;5.474;2023-03-17T10:47:34;19.70;51.60
45785;DHT22;31489;51.404;5.474;2023-03-17T10:50:17;20.00;50.40
45785;DHT22;31489;51.404;5.474;2023-03-17T10:52:45;20.30;49.90
45785;DHT22;31489;51.404;5.474;2023-03-17T10:55:15;20.50;50.90
45785;DHT22;31489;51.404;5.474;2023-03-17T10:58:06;20.80;50.10
45785;DHT22;31489;51.404;5.474;2023-03-17T11:00:38;21.10;49.20
45785;DHT22;31489;51.404;5.474;2023-03-17T11:03:15;21.30;49.90
45785;DHT22;31489;51.404;5.474;2023-03-17T11:05:54;21.50;48.20
45785;DHT22;31489;51.404;5.474;2023-03-17T11:08:21;21.50;47.10
45785;DHT22;31489;51.404;5.474;2023-03-17T11:10:53;21.60;48.70
45785;DHT22;31489;51.404;5.474;2023-03-17T11:13:20;21.70;48.00
45785;DHT22;31489;51.404;5.474;2023-03-17T11:15:50;21.90;48.70
45785;DHT22;31489;51.404;5.474;2023-03-17T11:18:26;22.20;47.70
45785;DHT22;31489;51.404;5.474;2023-03-17T11:21:10;22.50;47.00
45785;DHT22;31489;51.404;5.474;2023-03-17T11:23:47;22.80;46.40
45785;DHT22;31489;51.404;5.474;2023-03-17T11:26:42;23.00;46.70
45785;DHT22;31489;51.404;5.474;2023-03-17T11:32:10;23.60;45.90
45785;DHT22;31489;51.404;5.474;2023-03-17T11:34:50;23.90;45.40
45785;DHT22;31489;51.404;5.474;2023-03-17T11:40:20;24.60;44.50
45785;DHT22;31489;51.404;5.474;2023-03-17T11:43:10;24.90;45.80
45785;DHT22;31489;51.404;5.474;2023-03-17T11:45:44;25.20;45.10
45785;DHT22;31489;51.404;5.474;2023-03-17T11:51:05;25.70;44.90
45785;DHT22;31489;51.404;5.474;2023-03-17T11:59:11;26.30;42.90
45785;DHT22;31489;51.404;5.474;2023-03-17T12:01:57;26.40;41.40
45785;DHT22;31489;51.404;5.474;2023-03-17T12:04:29;26.50;41.60
45785;DHT22;31489;51.404;5.474;2023-03-17T12:07:19;26.60;41.50
45785;DHT22;31489;51.404;5.474;2023-03-17T12:12:41;26.80;41.90
45785;DHT22;31489;51.404;5.474;2023-03-17T12:15:16;26.90;40.60
45785;DHT22;31489;51.404;5.474;2023-03-17T12:17:56;26.80;39.40
45785;DHT22;31489;51.404;5.474;2023-03-17T12:20:51;26.70;39.70
45785;DHT22;31489;51.404;5.474;2023-03-17T12:23:35;26.60;40.30
45785;DHT22;31489;51.404;5.474;2023-03-17T12:26:22;26.40;40.10
45785;DHT22;31489;51.404;5.474;2023-03-17T12:29:12;26.30;39.90
45785;DHT22;31489;51.404;5.474;2023-03-17T12:32:04;26.10;39.80
45785;DHT22;31489;51.404;5.474;2023-03-17T12:34:51;25.90;39.80
45785;DHT22;31489;51.404;5.474;2023-03-17T12:37:19;25.60;39.30
45785;DHT22;31489;51.404;5.474;2023-03-17T12:40:06;25.40;40.00
45785;DHT22;31489;51.404;5.474;2023-03-17T12:42:58;25.10;39.30
45785;DHT22;31489;51.404;5.474;2023-03-17T12:53:51;24.50;40.60
45785;DHT22;31489;51.404;5.474;2023-03-17T12:56:20;24.50;41.10
45785;DHT22;31489;51.404;5.474;2023-03-17T12:58:50;24.50;41.10
45785;DHT22;31489;51.404;5.474;2023-03-17T13:01:24;24.60;41.80
45785;DHT22;31489;51.404;5.474;2023-03-17T13:04:08;24.60;41.20
45785;DHT22;31489;51.404;5.474;2023-03-17T13:07:02;24.60;40.80
45785;DHT22;31489;51.404;5.474;2023-03-17T13:09:27;24.60;41.40
45785;DHT22;31489;51.404;5.474;2023-03-17T13:11:53;24.60;41.80
45785;DHT22;31489;51.404;5.474;2023-03-17T13:14:39;24.60;41.60
45785;DHT22;31489;51.404;5.474;2023-03-17T13:19:56;24.50;40.80
45785;DHT22;31489;51.404;5.474;2023-03-17T13:22:23;24.50;41.00
45785;DHT22;31489;51.404;5.474;2023-03-17T13:24:51;24.50;41.60
45785;DHT22;31489;51.404;5.474;2023-03-17T13:29:55;24.50;40.50
45785;DHT22;31489;51.404;5.474;2023-03-17T13:32:34;24.50;41.40
45785;DHT22;31489;51.404;5.474;2023-03-17T13:35:14;24.50;40.60
45785;DHT22;31489;51.404;5.474;2023-03-17T13:40:23;24.50;41.20
45785;DHT22;31489;51.404;5.474;2023-03-17T13:43:11;24.40;40.60
45785;DHT22;31489;51.404;5.474;2023-03-17T13:45:43;24.40;40.60
45785;DHT22;31489;51.404;5.474;2023-03-17T13:57:20;24.30;41.20
45785;DHT22;31489;51.404;5.474;2023-03-17T13:59:16;24.20;41.30
45785;DHT22;31489;51.404;5.474;2023-03-17T14:01:48;24.20;41.20
45785;DHT22;31489;51.404;5.474;2023-03-17T14:04:24;24.20;41.00
45785;DHT22;31489;51.404;5.474;2023-03-17T14:06:52;24.10;41.00
45785;DHT22;31489;51.404;5.474;2023-03-17T14:09:37;24.10;41.20
45785;DHT22;31489;51.404;5.474;2023-03-17T14:12:10;24.00;40.70
45785;DHT22;31489;51.404;5.474;2023-03-17T14:15:03;24.00;41.10
45785;DHT22;31489;51.404;5.474;2023-03-17T14:20:36;23.80;41.30
45785;DHT22;31489;51.404;5.474;2023-03-17T14:23:05;23.80;42.80
45785;DHT22;31489;51.404;5.474;2023-03-17T14:25:35;23.80;42.30
45785;DHT22;31489;51.404;5.474;2023-03-17T14:28:07;23.70;42.10
45785;DHT22;31489;51.404;5.474;2023-03-17T14:30:37;23.60;42.10
45785;DHT22;31489;51.404;5.474;2023-03-17T14:35:39;23.50;42.20
45785;DHT22;31489;51.404;5.474;2023-03-17T14:41:05;23.40;41.80
45785;DHT22;31489;51.404;5.474;2023-03-17T14:43:33;23.30;42.00
45785;DHT22;31489;51.404;5.474;2023-03-17T14:46:04;23.30;43.00
45785;DHT22;31489;51.404;5.474;2023-03-17T14:48:41;23.20;42.90
45785;DHT22;31489;51.404;5.474;2023-03-17T14:51:22;23.20;42.40
45785;DHT22;31489;51.404;5.474;2023-03-17T14:53:50;23.10;42.60
45785;DHT22;31489;51.404;5.474;2023-03-17T14:56:26;23.10;43.40
45785;DHT22;31489;51.404;5.474;2023-03-17T14:58:53;23.10;43.00
45785;DHT22;31489;51.404;5.474;2023-03-17T15:01:33;23.10;43.60
45785;DHT22;31489;51.404;5.474;2023-03-17T15:04:14;23.10;43.50
45785;DHT22;31489;51.404;5.474;2023-03-17T15:06:57;23.10;43.80
45785;DHT22;31489;51.404;5.474;2023-03-17T15:14:35;23.10;44.10
45785;DHT22;31489;51.404;5.474;2023-03-17T15:17:05;23.00;43.00
45785;DHT22;31489;51.404;5.474;2023-03-17T15:25:15;23.00;43.10
45785;DHT22;31489;51.404;5.474;2023-03-17T15:27:43;22.90;43.50
45785;DHT22;31489;51.404;5.474;2023-03-17T15:30:10;22.90;43.60
45785;DHT22;31489;51.404;5.474;2023-03-17T15:32:36;22.90;43.60
45785;DHT22;31489;51.404;5.474;2023-03-17T15:35:02;22.90;43.70
45785;DHT22;31489;51.404;5.474;2023-03-17T15:37:30;22.90;43.40
45785;DHT22;31489;51.404;5.474;2023-03-17T15:39:57;22.80;43.20
45785;DHT22;31489;51.404;5.474;2023-03-17T15:42:28;22.80;43.40
45785;DHT22;31489;51.404;5.474;2023-03-17T15:44:56;22.70;43.10
45785;DHT22;31489;51.404;5.474;2023-03-17T15:47:24;22.70;43.60
45785;DHT22;31489;51.404;5.474;2023-03-17T15:49:55;22.70;43.50
45785;DHT22;31489;51.404;5.474;2023-03-17T15:52:24;22.70;43.60
45785;DHT22;31489;51.404;5.474;2023-03-17T15:54:52;22.60;44.00
45785;DHT22;31489;51.404;5.474;2023-03-17T15:57:18;22.60;43.90
45785;DHT22;31489;51.404;5.474;2023-03-17T15:59:44;22.60;44.10
45785;DHT22;31489;51.404;5.474;2023-03-17T16:02:27;22.50;44.70
45785;DHT22;31489;51.404;5.474;2023-03-17T16:04:53;22.50;44.10
45785;DHT22;31489;51.404;5.474;2023-03-17T16:07:20;22.50;44.30
45785;DHT22;31489;51.404;5.474;2023-03-17T16:09:46;22.50;43.90
45785;DHT22;31489;51.404;5.474;2023-03-17T16:12:12;22.40;43.30
45785;DHT22;31489;51.404;5.474;2023-03-17T16:14:38;22.40;43.00
45785;DHT22;31489;51.404;5.474;2023-03-17T16:17:04;22.30;43.10
45785;DHT22;31489;51.404;5.474;2023-03-17T16:19:31;22.30;43.30
45785;DHT22;31489;51.404;5.474;2023-03-17T16:21:57;22.20;43.60
45785;DHT22;31489;51.404;5.474;2023-03-17T16:24:25;22.10;43.70
45785;DHT22;31489;51.404;5.474;2023-03-17T16:26:51;22.10;43.10
45785;DHT22;31489;51.404;5.474;2023-03-17T16:29:19;22.00;42.70
45785;DHT22;31489;51.404;5.474;2023-03-17T16:31:48;22.00;42.70
45785;DHT22;31489;51.404;5.474;2023-03-17T16:34:22;21.90;42.20
45785;DHT22;31489;51.404;5.474;2023-03-17T16:36:49;21.80;42.00
45785;DHT22;31489;51.404;5.474;2023-03-17T16:39:19;21.80;42.20
45785;DHT22;31489;51.404;5.474;2023-03-17T16:41:47;21.70;42.00
45785;DHT22;31489;51.404;5.474;2023-03-17T16:44:14;21.60;42.40
45785;DHT22;31489;51.404;5.474;2023-03-17T16:46:41;21.60;42.10
45785;DHT22;31489;51.404;5.474;2023-03-17T16:49:16;21.50;42.10
45785;DHT22;31489;51.404;5.474;2023-03-17T16:51:42;21.40;42.00
45785;DHT22;31489;51.404;5.474;2023-03-17T16:54:09;21.40;42.20
45785;DHT22;31489;51.404;5.474;2023-03-17T16:56:41;21.30;42.70
45785;DHT22;31489;51.404;5.474;2023-03-17T16:59:19;21.30;42.00
45785;DHT22;31489;51.404;5.474;2023-03-17T17:01:45;21.20;42.00